Kerr, Arkansas
Current Conditions -  °F | °C
As of 6:53 PM on Friday 24 Oct 2014 (Local Time) from KLIT Reporting Station
Scattered Clouds Scattered Clouds  
Wind Chill: 67°   Ceiling: Unl
Heat Index: 67°   Visibility: 10mi
Dew Point: 56°   Wind: 5mph
Humidity: 68%   Direction: 190°S
Pressure: 30.09"   Gusts: NA
Location:  34.7054°N, 92.1029°W
Report Text: KLIT 242353Z 19004KT 10SM SCT250 19/13 A3009 RMK AO2 SLP190 T01940133 10256 20194 53001
Loading
Personal Weather Stations






























Interactive Weather Map
Tropical Storm Tracking
New forecast layout! Learn more

10-Day Weather Forecast

Advertisements
Track Severe Weather on mobile